Time;durP1;ratioP1;P1;durP2;ratioP2;P2;SDS_P1;SDS_P2;PMS_P1;PMS_P2;Temp;Humidity;BMP_temperature;BMP_pressure;BME280_temperature;BME280_humidity;BME280_pressure;Samples;Min_cycle;Max_cycle;Signal;HPM_P1;HPM_P2
2022/04/04 00:01:52;;;;;;;2.38;1.80;;;2.40;74.00;;;;;;5057168;28;20578;-69
2022/04/04 00:04:17;;;;;;;2.47;1.60;;;2.40;72.30;;;;;;5055002;28;20036;-68
2022/04/04 00:06:43;;;;;;;2.75;1.75;;;2.20;71.30;;;;;;5056742;28;20032;-69
2022/04/04 00:09:09;;;;;;;2.42;1.73;;;2.20;72.50;;;;;;5051649;28;20194;-68
2022/04/04 00:11:34;;;;;;;1.92;1.67;;;2.30;72.40;;;;;;5047364;28;20044;-68
2022/04/04 00:14:00;;;;;;;4.75;2.10;;;2.40;73.40;;;;;;5055984;28;20686;-69
2022/04/04 00:16:26;;;;;;;3.33;1.88;;;2.40;72.80;;;;;;5049493;28;20115;-69
2022/04/04 00:18:51;;;;;;;2.65;1.50;;;2.40;71.90;;;;;;5057577;28;20037;-69
2022/04/04 00:21:18;;;;;;;2.72;1.80;;;2.20;71.90;;;;;;5053828;28;20545;-69
2022/04/04 00:23:43;;;;;;;2.50;1.50;;;2.10;72.50;;;;;;5046727;28;20090;-69
2022/04/04 00:26:09;;;;;;;3.13;1.70;;;2.20;74.70;;;;;;5053087;28;20048;-69
2022/04/04 00:28:35;;;;;;;3.13;1.70;;;2.20;73.40;;;;;;5056541;28;20116;-69
2022/04/04 00:31:00;;;;;;;2.22;2.00;;;2.20;72.50;;;;;;5058668;28;20040;-68
2022/04/04 00:33:26;;;;;;;1.73;1.48;;;2.20;75.30;;;;;;5054136;28;20124;-69
2022/04/04 00:35:52;;;;;;;2.60;1.70;;;2.30;72.80;;;;;;5053674;28;20599;-69
2022/04/04 00:38:18;;;;;;;4.07;2.03;;;2.20;72.40;;;;;;5055290;28;20036;-68
2022/04/04 00:40:44;;;;;;;2.65;1.73;;;2.10;72.20;;;;;;5053746;28;20040;-69
2022/04/04 00:43:09;;;;;;;2.60;1.80;;;2.00;73.00;;;;;;5057178;28;20064;-69
2022/04/04 00:45:35;;;;;;;3.72;1.98;;;2.00;73.20;;;;;;5055259;28;20781;-69
2022/04/04 00:48:01;;;;;;;2.47;1.75;;;2.00;72.30;;;;;;5053982;28;20037;-69
2022/04/04 00:50:27;;;;;;;1.55;1.42;;;1.90;71.80;;;;;;5053209;28;20041;-69
2022/04/04 00:52:53;;;;;;;3.78;2.10;;;2.00;74.10;;;;;;5051794;28;20068;-69
2022/04/04 00:55:19;;;;;;;2.70;1.80;;;2.10;73.30;;;;;;5055755;28;20028;-69
2022/04/04 00:57:46;;;;;;;4.28;2.10;;;2.20;74.70;;;;;;5051642;28;20045;-69
2022/04/04 01:00:13;;;;;;;3.55;2.05;;;2.20;74.90;;;;;;5053719;28;20191;-69
2022/04/04 01:02:39;;;;;;;1.77;1.58;;;2.20;75.60;;;;;;5051245;28;20709;-69
2022/04/04 01:05:06;;;;;;;2.97;1.70;;;2.10;75.90;;;;;;5057449;28;20535;-69
2022/04/04 01:07:32;;;;;;;3.15;1.73;;;2.00;76.00;;;;;;5056150;28;20063;-69
2022/04/04 01:09:58;;;;;;;2.50;1.58;;;2.00;76.10;;;;;;5052847;28;20051;-69
2022/04/04 01:12:24;;;;;;;1.88;1.65;;;2.00;78.30;;;;;;5052469;28;20075;-69
2022/04/04 01:14:49;;;;;;;1.80;1.38;;;2.10;75.60;;;;;;5054947;28;20059;-69
2022/04/04 01:17:16;;;;;;;2.42;1.75;;;2.20;74.80;;;;;;5050774;28;20044;-69
2022/04/04 01:19:42;;;;;;;4.63;1.92;;;2.30;74.10;;;;;;5061161;28;20114;-70
2022/04/04 01:22:10;;;;;;;3.05;1.73;;;2.40;75.00;;;;;;5048934;28;20041;-69
2022/04/04 01:24:38;;;;;;;3.45;2.10;;;2.40;78.90;;;;;;5054085;28;20047;-69
2022/04/04 01:27:05;;;;;;;2.67;1.58;;;2.40;78.20;;;;;;5051342;28;20655;-69
2022/04/04 01:29:31;;;;;;;2.67;1.80;;;2.30;80.90;;;;;;5056771;28;21001;-70
2022/04/04 01:31:57;;;;;;;3.78;1.88;;;2.30;81.30;;;;;;5053774;28;20097;-69
2022/04/04 01:34:23;;;;;;;1.75;1.45;;;2.20;79.90;;;;;;5053131;28;20037;-69
2022/04/04 01:36:49;;;;;;;1.95;1.75;;;2.20;81.90;;;;;;5047617;28;20044;-69
2022/04/04 01:39:16;;;;;;;3.45;2.00;;;2.20;82.50;;;;;;5051902;28;20139;-69
2022/04/04 01:41:42;;;;;;;2.20;1.52;;;2.20;80.70;;;;;;5049102;28;20047;-69
2022/04/04 01:44:08;;;;;;;2.42;1.50;;;2.20;80.70;;;;;;5050647;28;20037;-69
2022/04/04 01:46:34;;;;;;;2.33;1.42;;;2.20;80.60;;;;;;5055146;28;20033;-69
2022/04/04 01:49:03;;;;;;;2.95;1.98;;;2.20;78.00;;;;;;5055665;28;20056;-69
2022/04/04 01:51:29;;;;;;;3.45;2.08;;;2.20;79.50;;;;;;5048377;28;20037;-70
2022/04/04 01:53:55;;;;;;;2.33;1.73;;;2.20;80.50;;;;;;5047119;28;20033;-69
2022/04/04 01:56:22;;;;;;;3.78;1.67;;;2.20;78.80;;;;;;5056880;28;20032;-68
2022/04/04 01:58:48;;;;;;;3.00;1.77;;;2.10;75.90;;;;;;5053522;28;20083;-69
2022/04/04 02:01:19;;;;;;;4.13;1.70;;;2.00;77.20;;;;;;5051999;28;20481;-69
2022/04/04 02:03:47;;;;;;;2.13;1.77;;;2.00;79.40;;;;;;5048078;28;20199;-69
2022/04/04 02:06:13;;;;;;;1.77;1.27;;;2.00;77.80;;;;;;5046303;28;20049;-69
2022/04/04 02:08:40;;;;;;;2.67;1.75;;;2.00;78.20;;;;;;5045157;28;20122;-70
2022/04/04 02:11:07;;;;;;;2.38;1.80;;;1.90;79.00;;;;;;5047814;28;20033;-69
2022/04/04 02:13:32;;;;;;;3.33;1.88;;;1.80;80.30;;;;;;5051345;28;20055;-69
2022/04/04 02:16:04;;;;;;;2.63;1.80;;;1.90;82.30;;;;;;5048175;28;20036;-68
2022/04/04 02:18:31;;;;;;;3.58;1.40;;;1.90;78.60;;;;;;5048099;28;20044;-69
2022/04/04 02:20:57;;;;;;;1.90;1.50;;;1.80;78.40;;;;;;5046166;28;20072;-68
2022/04/04 02:23:23;;;;;;;2.67;1.55;;;1.70;79.50;;;;;;5045479;28;20040;-68
2022/04/04 02:25:50;;;;;;;2.00;1.50;;;1.50;79.60;;;;;;5045782;28;22247;-68
2022/04/04 02:28:16;;;;;;;3.75;2.17;;;1.50;80.40;;;;;;5051779;28;20174;-69
2022/04/04 02:30:43;;;;;;;2.00;1.70;;;1.60;85.50;;;;;;5044617;28;20041;-69
2022/04/04 02:33:09;;;;;;;1.48;1.35;;;1.60;83.10;;;;;;5048995;28;20145;-69
2022/04/04 02:35:35;;;;;;;2.90;1.67;;;1.60;81.80;;;;;;5046559;28;20028;-69
2022/04/04 02:38:02;;;;;;;1.70;1.60;;;1.60;79.10;;;;;;5045638;28;20041;-69
2022/04/04 02:40:28;;;;;;;3.60;1.65;;;1.60;79.60;;;;;;5048980;28;20429;-69
2022/04/04 02:42:55;;;;;;;3.08;1.90;;;1.70;84.40;;;;;;5043596;28;20430;-68
2022/04/04 02:45:21;;;;;;;4.47;2.05;;;1.70;84.00;;;;;;5053621;28;20044;-68
2022/04/04 02:47:47;;;;;;;3.55;1.83;;;1.60;82.40;;;;;;5054151;28;20040;-69
2022/04/04 02:50:14;;;;;;;1.92;1.70;;;1.50;82.00;;;;;;5051161;28;20066;-69
2022/04/04 02:52:40;;;;;;;4.47;2.13;;;1.40;82.40;;;;;;5051023;28;20040;-69
2022/04/04 02:57:51;;;;;;;3.22;2.13;;;1.60;85.90;;;;;;5048485;28;20103;-69
2022/04/04 03:00:19;;;;;;;2.65;1.88;;;1.60;82.20;;;;;;5051597;28;20028;-68
2022/04/04 03:02:45;;;;;;;3.08;1.48;;;1.60;81.80;;;;;;5057479;28;20052;-68
2022/04/04 03:05:11;;;;;;;3.20;2.00;;;1.40;81.70;;;;;;5053536;28;20392;-68
2022/04/04 03:07:37;;;;;;;3.28;1.70;;;1.30;82.40;;;;;;5052091;28;20086;-68
2022/04/04 03:10:03;;;;;;;2.78;1.70;;;1.30;84.30;;;;;;5048835;28;20450;-68
2022/04/04 03:12:29;;;;;;;2.10;1.80;;;1.40;85.40;;;;;;5047198;28;20423;-68
2022/04/04 03:14:55;;;;;;;2.80;1.83;;;1.40;85.10;;;;;;5047269;28;20040;-68
2022/04/04 03:17:21;;;;;;;1.92;1.52;;;1.40;82.80;;;;;;5046215;28;20047;-68
2022/04/04 03:19:47;;;;;;;2.53;1.52;;;1.40;81.70;;;;;;5048427;28;20516;-68
2022/04/04 03:22:13;;;;;;;2.22;1.40;;;1.20;81.70;;;;;;5048790;28;20717;-68
2022/04/04 03:24:39;;;;;;;2.20;1.35;;;1.00;82.80;;;;;;5044981;28;20045;-68
2022/04/04 03:27:05;;;;;;;1.45;1.23;;;1.10;83.80;;;;;;5050328;28;20047;-68
2022/04/04 03:29:31;;;;;;;3.28;1.75;;;1.20;83.30;;;;;;5044980;28;20056;-68
2022/04/04 03:31:58;;;;;;;3.08;1.60;;;1.20;83.40;;;;;;5051661;28;20033;-68
2022/04/04 03:34:24;;;;;;;3.05;1.65;;;1.30;83.30;;;;;;5050117;28;20040;-68
2022/04/04 03:36:50;;;;;;;1.85;1.38;;;1.20;82.10;;;;;;5053515;28;20493;-68
2022/04/04 03:39:16;;;;;;;2.88;1.98;;;1.10;82.20;;;;;;5050865;28;20044;-68
2022/04/04 03:41:45;;;;;;;1.92;1.60;;;0.90;82.60;;;;;;5055237;28;20052;-68
2022/04/04 03:44:12;;;;;;;3.08;1.73;;;0.80;84.00;;;;;;5050671;28;20191;-68
2022/04/04 03:46:38;;;;;;;2.88;2.10;;;0.90;84.30;;;;;;5050298;28;20075;-68
2022/04/04 03:49:07;;;;;;;2.28;1.52;;;1.00;82.60;;;;;;5054364;28;20724;-68
2022/04/04 03:51:33;;;;;;;3.03;1.60;;;0.90;82.00;;;;;;5052533;28;20044;-68
2022/04/04 03:53:59;;;;;;;4.03;1.83;;;0.70;82.50;;;;;;5052571;28;20155;-68
2022/04/04 03:56:25;;;;;;;1.88;1.42;;;0.50;83.30;;;;;;5053145;28;20727;-68
2022/04/04 03:58:52;;;;;;;2.13;1.50;;;0.40;84.40;;;;;;5052407;28;20059;-68
2022/04/04 04:01:18;;;;;;;3.25;1.73;;;0.30;85.30;;;;;;5053121;28;20033;-68
2022/04/04 04:03:44;;;;;;;3.17;1.75;;;0.20;85.80;;;;;;5051263;28;20056;-68
2022/04/04 04:06:13;;;;;;;3.20;1.60;;;0.10;87.10;;;;;;5053329;28;20032;-68
2022/04/04 04:08:45;;;;;;;2.35;1.50;;;0.10;88.10;;;;;;5056207;28;20033;-68
2022/04/04 04:11:13;;;;;;;2.33;1.88;;;0.00;88.10;;;;;;5056270;28;20028;-68
2022/04/04 04:13:41;;;;;;;2.63;2.13;;;0.10;89.50;;;;;;5053888;28;21826;-68
2022/04/04 04:16:09;;;;;;;2.38;1.70;;;0.30;88.10;;;;;;5053780;28;20034;-68
2022/04/04 04:18:35;;;;;;;2.42;1.45;;;0.20;87.70;;;;;;5056512;28;20628;-68
2022/04/04 04:21:02;;;;;;;4.68;1.85;;;0.00;89.30;;;;;;5056325;28;20115;-68
2022/04/04 04:23:28;;;;;;;2.88;1.58;;;0.00;90.10;;;;;;5053350;28;20390;-68
2022/04/04 04:25:54;;;;;;;4.00;1.88;;;-0.10;90.40;;;;;;5049613;28;20032;-68
2022/04/04 04:28:20;;;;;;;3.60;2.47;;;0.00;90.40;;;;;;5056130;28;20044;-68
2022/04/04 04:30:45;;;;;;;4.03;1.92;;;0.10;90.10;;;;;;5055565;28;20083;-68
2022/04/04 04:33:11;;;;;;;2.90;1.40;;;0.20;90.10;;;;;;5052481;28;20037;-68
2022/04/04 04:35:37;;;;;;;2.90;2.20;;;0.20;89.50;;;;;;5052863;28;20040;-68
2022/04/04 04:38:03;;;;;;;4.70;2.70;;;0.20;90.00;;;;;;5057683;28;20111;-68
2022/04/04 04:40:28;;;;;;;3.75;2.97;;;0.40;90.60;;;;;;5064779;28;20195;-68
2022/04/04 04:42:55;;;;;;;3.03;2.45;;;0.50;90.90;;;;;;5053741;28;20033;-68
2022/04/04 04:45:21;;;;;;;3.38;2.00;;;0.70;90.00;;;;;;5052035;28;20049;-68
2022/04/04 04:47:48;;;;;;;2.42;1.67;;;0.60;88.30;;;;;;5054331;28;20036;-68
2022/04/04 04:50:19;;;;;;;2.47;1.50;;;0.40;88.20;;;;;;5047569;28;20155;-68
2022/04/04 04:52:46;;;;;;;3.55;1.58;;;0.20;88.50;;;;;;5051895;28;20097;-68
2022/04/04 04:55:13;;;;;;;3.22;2.15;;;0.10;88.80;;;;;;5051128;28;20064;-68
2022/04/04 04:57:40;;;;;;;3.28;1.90;;;0.00;89.30;;;;;;5054666;28;20139;-68
2022/04/04 05:00:08;;;;;;;4.05;1.80;;;0.00;90.10;;;;;;5055807;28;20049;-68
2022/04/04 05:02:35;;;;;;;3.58;1.90;;;0.00;90.40;;;;;;5054381;28;20029;-68
2022/04/04 05:05:01;;;;;;;2.92;1.92;;;0.20;91.00;;;;;;5048332;28;20047;-68
2022/04/04 05:07:27;;;;;;;2.45;1.83;;;0.40;90.90;;;;;;5048724;28;20108;-67
2022/04/04 05:09:53;;;;;;;3.63;2.30;;;0.60;91.00;;;;;;5052108;28;20066;-68
2022/04/04 05:12:19;;;;;;;5.05;2.15;;;0.70;91.00;;;;;;5052294;28;20036;-68
2022/04/04 05:14:44;;;;;;;3.28;2.15;;;0.80;90.40;;;;;;5053959;28;20751;-67
2022/04/04 05:17:10;;;;;;;2.08;1.75;;;0.90;90.00;;;;;;5054201;28;20559;-68
2022/04/04 05:19:36;;;;;;;4.28;2.20;;;0.90;90.20;;;;;;5054850;28;20548;-68
2022/04/04 05:22:02;;;;;;;4.10;2.17;;;1.10;90.10;;;;;;5058203;28;20045;-68
2022/04/04 05:24:28;;;;;;;4.88;2.05;;;1.30;90.40;;;;;;5044169;28;20033;-69
2022/04/04 05:26:55;;;;;;;3.72;2.10;;;1.40;90.60;;;;;;5051196;28;20098;-68
2022/04/04 05:29:20;;;;;;;3.15;2.17;;;1.60;90.40;;;;;;5051136;28;20443;-68
2022/04/04 05:31:46;;;;;;;8.40;2.78;;;1.70;89.40;;;;;;5048905;28;20040;-68
2022/04/04 05:34:12;;;;;;;3.60;2.30;;;1.70;88.80;;;;;;5052399;28;20109;-68
2022/04/04 05:36:38;;;;;;;4.65;2.40;;;1.80;87.40;;;;;;5051447;28;20048;-68
2022/04/04 05:39:05;;;;;;;3.45;2.60;;;1.90;87.80;;;;;;5048582;28;20063;-68
2022/04/04 05:41:31;;;;;;;6.15;3.05;;;2.00;87.20;;;;;;5048687;28;20143;-68
2022/04/04 05:43:57;;;;;;;8.45;3.95;;;2.10;86.60;;;;;;5052149;28;20162;-69
2022/04/04 05:46:23;;;;;;;5.00;2.63;;;2.20;84.90;;;;;;5048208;28;20101;-69
2022/04/04 05:48:49;;;;;;;5.55;3.10;;;2.20;85.30;;;;;;5055876;28;20033;-69
2022/04/04 05:51:16;;;;;;;4.25;3.10;;;2.30;83.20;;;;;;5050805;28;20049;-69
2022/04/04 05:53:43;;;;;;;3.53;2.70;;;2.40;83.60;;;;;;5049715;28;20057;-69
2022/04/04 05:56:09;;;;;;;4.68;2.92;;;2.40;83.10;;;;;;5051926;28;20086;-69
2022/04/04 05:58:36;;;;;;;3.67;2.70;;;2.50;82.80;;;;;;5050868;28;20037;-68
2022/04/04 06:01:03;;;;;;;4.75;2.50;;;2.70;83.00;;;;;;5053158;28;20040;-68
2022/04/04 06:03:28;;;;;;;5.75;2.72;;;2.90;81.50;;;;;;5057189;28;20551;-68
2022/04/04 06:05:54;;;;;;;4.35;2.45;;;3.00;79.80;;;;;;5049012;28;20044;-68
2022/04/04 06:08:20;;;;;;;4.78;2.65;;;3.00;78.10;;;;;;5047528;28;20047;-70
2022/04/04 06:10:47;;;;;;;3.40;2.70;;;3.00;77.90;;;;;;5050860;28;20147;-69
2022/04/04 06:13:14;;;;;;;4.43;3.33;;;3.10;77.70;;;;;;5056367;28;20033;-69
2022/04/04 06:15:40;;;;;;;4.35;2.75;;;3.20;77.70;;;;;;5045159;28;20029;-69
2022/04/04 06:18:06;;;;;;;5.30;3.50;;;3.20;77.00;;;;;;5062138;28;20067;-69
2022/04/04 06:20:32;;;;;;;7.55;3.30;;;3.20;77.90;;;;;;5056561;28;20116;-69
2022/04/04 06:22:57;;;;;;;6.30;3.45;;;3.30;78.00;;;;;;5052160;28;20061;-69
2022/04/04 06:25:23;;;;;;;5.30;3.40;;;3.40;79.30;;;;;;5052746;28;20428;-69
2022/04/04 06:27:49;;;;;;;4.60;2.70;;;3.60;77.30;;;;;;5047304;28;20810;-69
2022/04/04 06:30:15;;;;;;;9.43;6.32;;;3.50;75.70;;;;;;5053292;28;20032;-68
2022/04/04 06:32:43;;;;;;;11.82;6.07;;;3.50;77.40;;;;;;5054346;28;20048;-69
2022/04/04 06:35:10;;;;;;;6.45;3.63;;;3.60;77.50;;;;;;5055348;28;20273;-69
2022/04/04 06:37:36;;;;;;;6.10;3.90;;;3.70;75.80;;;;;;5047692;28;20079;-69
2022/04/04 06:40:03;;;;;;;5.57;3.50;;;3.70;76.10;;;;;;5049228;28;20052;-69
2022/04/04 06:42:31;;;;;;;6.20;3.35;;;3.80;77.20;;;;;;5040729;28;20049;-69
2022/04/04 06:44:58;;;;;;;4.70;2.95;;;3.80;75.70;;;;;;5037426;28;20128;-70
2022/04/04 06:47:24;;;;;;;5.35;3.47;;;3.80;74.40;;;;;;5042271;28;20049;-70
2022/04/04 06:49:52;;;;;;;5.47;3.38;;;3.90;73.90;;;;;;5044558;28;20045;-70
2022/04/04 06:52:19;;;;;;;4.22;3.20;;;4.00;74.00;;;;;;5044271;28;20771;-70
2022/04/04 06:54:46;;;;;;;5.35;2.97;;;4.00;72.20;;;;;;5041656;28;20111;-70
2022/04/04 06:57:11;;;;;;;4.38;3.35;;;4.10;71.60;;;;;;5051112;28;20045;-70
2022/04/04 06:59:37;;;;;;;5.60;3.25;;;4.10;71.30;;;;;;5046012;28;20055;-69
2022/04/04 07:02:03;;;;;;;4.22;3.65;;;4.10;71.90;;;;;;5044434;28;20038;-69
2022/04/04 07:04:29;;;;;;;5.05;3.40;;;4.10;72.60;;;;;;5048055;28;20144;-70
2022/04/04 07:06:55;;;;;;;3.85;2.90;;;4.20;71.70;;;;;;5047005;28;20128;-72
2022/04/04 07:09:20;;;;;;;4.60;3.10;;;4.40;70.60;;;;;;5056888;28;20488;-71
2022/04/04 07:11:48;;;;;;;4.07;3.20;;;4.30;69.10;;;;;;5045983;28;20620;-72
2022/04/04 07:14:13;;;;;;;4.32;2.90;;;4.40;71.80;;;;;;5042254;28;20041;-71
2022/04/04 07:16:39;;;;;;;4.57;3.08;;;4.40;70.00;;;;;;5048661;28;20067;-71
2022/04/04 07:19:05;;;;;;;4.43;3.95;;;4.40;68.50;;;;;;5048158;28;20053;-72
2022/04/04 07:21:31;;;;;;;3.90;2.83;;;4.50;68.90;;;;;;5048794;28;20485;-71
2022/04/04 07:23:56;;;;;;;5.90;2.95;;;4.60;68.10;;;;;;5049708;28;20122;-71
2022/04/04 07:26:23;;;;;;;3.88;3.08;;;4.70;66.70;;;;;;5050175;28;20044;-70
2022/04/04 07:28:49;;;;;;;5.28;3.25;;;4.60;67.00;;;;;;5049358;28;20041;-70
2022/04/04 07:31:16;;;;;;;4.25;3.17;;;4.60;66.50;;;;;;5048897;28;20040;-70
2022/04/04 07:33:42;;;;;;;3.63;2.08;;;4.60;66.50;;;;;;5051285;28;20480;-71
2022/04/04 07:36:08;;;;;;;4.47;2.72;;;4.60;61.30;;;;;;5049118;28;20029;-71
2022/04/04 07:38:33;;;;;;;3.97;2.70;;;4.60;60.30;;;;;;5046635;28;20056;-71
2022/04/04 07:40:59;;;;;;;4.25;2.92;;;4.70;63.10;;;;;;5051307;28;20076;-71
2022/04/04 07:43:25;;;;;;;4.28;3.13;;;4.70;62.50;;;;;;5048131;28;20422;-71
2022/04/04 07:45:51;;;;;;;7.00;2.83;;;4.80;61.60;;;;;;5052394;28;20040;-71
2022/04/04 07:48:17;;;;;;;5.90;2.97;;;4.90;64.30;;;;;;5051575;28;20033;-71
2022/04/04 07:50:44;;;;;;;3.38;2.85;;;5.00;61.60;;;;;;5056373;28;20045;-71
2022/04/04 07:53:11;;;;;;;4.57;2.75;;;5.10;61.60;;;;;;5045464;28;20078;-71
2022/04/04 07:55:37;;;;;;;4.00;3.17;;;5.20;61.40;;;;;;5055245;28;20497;-71
2022/04/04 07:58:04;;;;;;;6.43;2.67;;;5.30;61.40;;;;;;5053554;28;20036;-71
2022/04/04 08:00:29;;;;;;;3.25;2.58;;;5.30;60.90;;;;;;5051758;28;20044;-71
2022/04/04 08:02:55;;;;;;;2.25;1.83;;;5.30;59.60;;;;;;5062810;28;20042;-71
2022/04/04 08:05:21;;;;;;;1.88;1.73;;;5.30;56.30;;;;;;5056836;28;20052;-71
2022/04/04 08:07:48;;;;;;;3.75;3.10;;;5.30;57.00;;;;;;5050863;28;20135;-72
2022/04/04 08:10:17;;;;;;;3.50;2.67;;;5.40;59.80;;;;;;5048509;28;20033;-71
2022/04/04 08:12:43;;;;;;;3.25;2.90;;;5.60;61.70;;;;;;5057664;28;20037;-71
2022/04/04 08:15:10;;;;;;;2.40;2.20;;;5.70;62.10;;;;;;5051828;28;20175;-71
2022/04/04 08:17:37;;;;;;;2.58;2.08;;;6.00;56.80;;;;;;5048591;28;20060;-71
2022/04/04 08:20:04;;;;;;;2.58;1.90;;;6.30;54.40;;;;;;5052196;28;21082;-71
2022/04/04 08:22:30;;;;;;;3.88;2.05;;;6.10;53.50;;;;;;5052943;28;20037;-71
2022/04/04 08:24:55;;;;;;;2.97;2.05;;;5.80;53.50;;;;;;5051784;28;20044;-71
2022/04/04 08:27:22;;;;;;;2.30;2.00;;;5.60;53.70;;;;;;5056215;28;20030;-70
2022/04/04 08:29:48;;;;;;;5.50;2.05;;;5.60;55.80;;;;;;5054001;28;20482;-71
2022/04/04 08:32:14;;;;;;;2.33;1.80;;;5.80;58.20;;;;;;5047916;28;20025;-70
2022/04/04 08:34:40;;;;;;;1.92;1.55;;;5.90;55.60;;;;;;5052484;28;20266;-70
2022/04/04 08:37:06;;;;;;;2.20;1.65;;;5.80;55.20;;;;;;5052130;28;20033;-71
2022/04/04 08:39:31;;;;;;;2.20;1.67;;;5.70;54.00;;;;;;5051892;28;20688;-71
2022/04/04 08:41:58;;;;;;;1.90;1.80;;;5.70;54.70;;;;;;5047976;28;20037;-71
2022/04/04 08:44:24;;;;;;;2.35;1.70;;;5.90;56.10;;;;;;5060848;28;20033;-71
2022/04/04 08:46:51;;;;;;;1.90;1.42;;;6.10;57.10;;;;;;5060173;28;20036;-72
2022/04/04 08:49:17;;;;;;;3.00;2.03;;;6.20;56.40;;;;;;5052513;28;20052;-71
2022/04/04 08:51:43;;;;;;;2.20;1.67;;;6.10;56.60;;;;;;5052236;28;20387;-71
2022/04/04 08:54:09;;;;;;;2.45;2.13;;;6.10;53.60;;;;;;5053578;28;20087;-71
2022/04/04 08:56:35;;;;;;;2.45;1.85;;;5.90;52.30;;;;;;5045227;28;20146;-71
2022/04/04 08:59:01;;;;;;;2.53;2.08;;;5.90;55.90;;;;;;5051691;28;20044;-71
2022/04/04 09:01:28;;;;;;;2.65;2.13;;;6.00;53.30;;;;;;5048922;28;20477;-71
2022/04/04 09:04:00;;;;;;;3.83;2.10;;;6.00;54.40;;;;;;5057295;28;20833;-70
2022/04/04 09:06:30;;;;;;;3.45;2.00;;;6.10;55.80;;;;;;5050991;28;20087;-71
2022/04/04 09:08:56;;;;;;;2.28;1.83;;;6.10;51.20;;;;;;5060278;28;20036;-71
2022/04/04 09:11:22;;;;;;;1.83;1.73;;;6.20;52.90;;;;;;5054631;28;20154;-71
2022/04/04 09:14:07;;;;;;;2.58;1.75;;;6.30;53.20;;;;;;5052998;28;20090;-71
2022/04/04 09:16:34;;;;;;;3.45;1.90;;;6.30;55.40;;;;;;5048314;28;20033;-71
2022/04/04 09:19:00;;;;;;;2.03;1.80;;;6.30;54.50;;;;;;5051635;28;20044;-71
2022/04/04 09:21:25;;;;;;;2.53;1.80;;;6.30;53.60;;;;;;5053042;28;20040;-71
2022/04/04 09:23:56;;;;;;;1.95;1.73;;;6.40;54.70;;;;;;5053822;28;20063;-71
2022/04/04 09:26:30;;;;;;;2.70;1.98;;;6.60;55.30;;;;;;5058845;28;20090;-71
2022/04/04 09:29:05;;;;;;;3.75;2.03;;;6.70;57.30;;;;;;5060865;28;20036;-71
2022/04/04 09:31:31;;;;;;;4.15;2.35;;;6.80;54.80;;;;;;5055031;28;20261;-71
2022/04/04 09:34:03;;;;;;;3.10;2.20;;;6.80;56.70;;;;;;5059563;28;20127;-71
2022/04/04 09:36:30;;;;;;;3.92;1.90;;;6.90;53.60;;;;;;5057292;28;20068;-71
2022/04/04 09:39:08;;;;;;;2.67;1.80;;;6.90;53.60;;;;;;5059999;28;20048;-71
2022/04/04 09:41:34;;;;;;;2.38;2.17;;;6.70;51.90;;;;;;5039412;28;20833;-71
2022/04/04 09:44:05;;;;;;;4.32;2.45;;;6.70;54.20;;;;;;5058958;28;20044;-71
2022/04/04 09:46:36;;;;;;;3.67;2.33;;;6.50;56.40;;;;;;5050241;28;20463;-71
2022/04/04 09:49:20;;;;;;;2.40;2.20;;;6.60;57.40;;;;;;5053955;28;20042;-71
2022/04/04 09:51:52;;;;;;;3.92;2.45;;;6.80;55.60;;;;;;5051793;28;20282;-71
2022/04/04 09:54:29;;;;;;;3.28;2.40;;;6.90;54.40;;;;;;5054687;28;20041;-71
2022/04/04 09:57:16;;;;;;;2.42;2.22;;;6.90;53.40;;;;;;5057252;28;20828;-71
2022/04/04 09:59:42;;;;;;;4.18;2.83;;;7.00;54.30;;;;;;5043485;28;20506;-71
2022/04/04 10:02:11;;;;;;;4.28;2.65;;;7.10;55.50;;;;;;5056072;28;20673;-71
2022/04/04 10:04:38;;;;;;;3.88;2.60;;;7.30;57.80;;;;;;5045913;28;20564;-72
2022/04/04 10:07:08;;;;;;;4.32;2.97;;;7.30;56.70;;;;;;5058535;28;20029;-71
2022/04/04 10:09:35;;;;;;;4.55;2.80;;;7.30;57.80;;;;;;5059676;28;20048;-71
2022/04/04 10:12:03;;;;;;;4.22;2.40;;;7.20;56.80;;;;;;5050606;28;20029;-72
2022/04/04 10:14:31;;;;;;;3.47;2.85;;;7.30;53.60;;;;;;5051580;28;20032;-71
2022/04/04 10:16:57;;;;;;;3.15;2.85;;;7.30;55.20;;;;;;5044874;28;20052;-71
2022/04/04 10:19:25;;;;;;;2.50;2.30;;;7.30;56.50;;;;;;5052899;28;20405;-71
2022/04/04 10:21:51;;;;;;;3.15;2.30;;;7.40;57.10;;;;;;5052580;28;20028;-71
2022/04/04 10:24:18;;;;;;;3.30;2.72;;;7.50;56.50;;;;;;5052099;28;20497;-68
2022/04/04 10:26:50;;;;;;;3.42;2.63;;;7.70;55.60;;;;;;5051744;28;20024;-69
2022/04/04 10:29:18;;;;;;;2.95;2.70;;;7.60;54.80;;;;;;5048440;28;20106;-69
2022/04/04 10:31:46;;;;;;;4.25;2.20;;;7.60;55.80;;;;;;5049644;28;20029;-69
2022/04/04 10:34:15;;;;;;;4.63;2.85;;;7.70;55.60;;;;;;5042859;28;20095;-68
2022/04/04 10:36:59;;;;;;;5.93;2.72;;;7.70;57.80;;;;;;5055253;28;20120;-68
2022/04/04 10:39:36;;;;;;;3.58;3.08;;;7.90;53.40;;;;;;5049683;28;20390;-71
2022/04/04 10:42:03;;;;;;;4.50;2.17;;;8.10;54.50;;;;;;5046990;28;20036;-69
2022/04/04 10:44:49;;;;;;;2.03;1.83;;;8.10;57.00;;;;;;5052136;28;20041;-68
2022/04/04 10:47:23;;;;;;;3.53;1.90;;;8.00;54.00;;;;;;5048879;28;20037;-69
2022/04/04 10:49:49;;;;;;;2.97;2.33;;;8.00;54.80;;;;;;5035797;28;20036;-68
2022/04/04 10:52:21;;;;;;;3.00;2.00;;;8.10;52.00;;;;;;5052452;28;20144;-69
2022/04/04 10:54:48;;;;;;;2.53;2.03;;;8.10;52.10;;;;;;5054730;28;20041;-69
2022/04/04 10:57:18;;;;;;;2.05;1.85;;;7.90;52.70;;;;;;5047790;28;20767;-69
2022/04/04 10:59:48;;;;;;;3.17;1.95;;;8.00;52.20;;;;;;5051428;28;20511;-68
2022/04/04 11:02:18;;;;;;;3.05;1.80;;;8.10;53.10;;;;;;5047797;28;20079;-69
2022/04/04 11:07:38;;;;;;;2.80;1.98;;;8.20;54.10;;;;;;5040901;28;20051;-72
2022/04/04 11:10:09;;;;;;;2.20;2.00;;;8.30;56.30;;;;;;5053320;28;20166;-69
2022/04/04 11:13:07;;;;;;;3.20;2.10;;;8.20;55.80;;;;;;5047693;28;20040;-69
2022/04/04 11:15:44;;;;;;;2.83;2.15;;;8.40;56.70;;;;;;5054907;28;21128;-69
2022/04/04 11:18:14;;;;;;;2.38;2.10;;;8.40;55.70;;;;;;5059511;28;20078;-69
2022/04/04 11:20:48;;;;;;;2.85;2.17;;;8.40;51.80;;;;;;5057410;28;20090;-69
2022/04/04 11:23:14;;;;;;;5.82;2.60;;;8.50;54.10;;;;;;5054424;28;20036;-69
2022/04/04 11:25:53;;;;;;;2.67;2.30;;;8.60;55.50;;;;;;5059101;28;20043;-69
2022/04/04 11:28:22;;;;;;;3.90;2.45;;;8.50;53.60;;;;;;5057768;28;20385;-69
2022/04/04 11:31:01;;;;;;;4.35;2.42;;;8.20;53.60;;;;;;5059444;28;20040;-69
2022/04/04 11:33:28;;;;;;;2.67;2.28;;;8.20;59.50;;;;;;5058627;28;20119;-69
2022/04/04 11:35:54;;;;;;;2.92;2.05;;;8.40;56.70;;;;;;5053531;28;20040;-69
2022/04/04 11:38:20;;;;;;;2.65;2.22;;;8.50;54.80;;;;;;5051347;28;20119;-69
2022/04/04 11:40:57;;;;;;;3.50;2.38;;;8.50;55.40;;;;;;5046799;28;20060;-70
2022/04/04 11:43:24;;;;;;;4.15;2.47;;;8.80;57.00;;;;;;5055768;28;20416;-69
2022/04/04 11:45:52;;;;;;;3.03;2.63;;;8.90;57.00;;;;;;5056829;28;20052;-71
2022/04/04 11:48:28;;;;;;;3.88;2.65;;;8.90;54.60;;;;;;5059194;28;20123;-70
2022/04/04 11:50:58;;;;;;;3.63;2.88;;;9.00;56.10;;;;;;5059497;28;20033;-70
2022/04/04 11:53:32;;;;;;;3.15;2.60;;;9.00;56.20;;;;;;5042243;28;20074;-70
2022/04/04 11:56:02;;;;;;;3.30;2.72;;;8.80;55.80;;;;;;5062446;28;20548;-70
2022/04/04 11:58:29;;;;;;;6.47;2.63;;;8.80;55.30;;;;;;5057566;28;20057;-70
2022/04/04 12:01:04;;;;;;;3.03;2.65;;;8.90;56.80;;;;;;5062160;28;20563;-70
2022/04/04 12:03:32;;;;;;;3.80;2.60;;;9.00;59.40;;;;;;5055465;28;20045;-70
2022/04/04 12:06:05;;;;;;;2.75;2.50;;;8.80;55.60;;;;;;5056962;28;20158;-70
2022/04/04 12:08:31;;;;;;;4.30;3.25;;;8.30;54.60;;;;;;5033064;28;20432;-69
2022/04/04 12:10:57;;;;;;;3.00;2.63;;;8.00;57.40;;;;;;5059789;28;20745;-70
2022/04/04 12:13:24;;;;;;;3.47;3.17;;;7.90;59.00;;;;;;5048536;28;20064;-70
2022/04/04 12:15:54;;;;;;;3.30;2.97;;;8.10;59.20;;;;;;5057378;28;20071;-71
2022/04/04 12:18:21;;;;;;;4.88;2.92;;;8.40;58.90;;;;;;5045118;28;20036;-70
2022/04/04 12:20:48;;;;;;;4.43;3.20;;;8.20;56.00;;;;;;5061643;28;20044;-70
2022/04/04 12:26:07;;;;;;;3.67;3.08;;;7.80;59.60;;;;;;5058546;28;20131;-70
2022/04/04 12:28:34;;;;;;;3.30;3.03;;;7.90;59.30;;;;;;5056783;28;20079;-70
2022/04/04 12:31:29;;;;;;;3.38;3.08;;;7.90;59.40;;;;;;5053900;28;20084;-70
2022/04/04 12:34:08;;;;;;;4.15;3.28;;;7.90;57.90;;;;;;5035787;28;20040;-70
2022/04/04 12:36:39;;;;;;;4.53;3.70;;;8.10;57.60;;;;;;5052532;28;20614;-70
2022/04/04 12:39:14;;;;;;;5.82;3.92;;;8.40;58.40;;;;;;5058299;28;20490;-70
2022/04/04 12:41:47;;;;;;;4.97;3.30;;;8.40;59.20;;;;;;5059366;28;20048;-70
2022/04/04 12:44:19;;;;;;;3.42;3.13;;;8.10;58.30;;;;;;5056467;28;20509;-70
2022/04/04 12:46:45;;;;;;;4.13;3.72;;;7.80;59.80;;;;;;5059116;28;20043;-70
2022/04/04 12:49:26;;;;;;;3.42;3.13;;;7.80;59.20;;;;;;5058304;28;20044;-70
2022/04/04 12:52:06;;;;;;;5.07;3.50;;;7.60;58.40;;;;;;5055826;28;20044;-70
2022/04/04 12:54:34;;;;;;;4.07;3.67;;;7.50;59.60;;;;;;5055024;28;20564;-70
2022/04/04 12:57:03;;;;;;;3.72;3.42;;;7.40;61.90;;;;;;5051554;28;20036;-70
2022/04/04 12:59:29;;;;;;;4.82;3.45;;;7.50;61.90;;;;;;5052065;28;20130;-70
2022/04/04 13:02:09;;;;;;;5.60;3.83;;;7.50;62.00;;;;;;5051605;28;20045;-70
2022/04/04 13:04:39;;;;;;;3.70;3.08;;;7.50;60.90;;;;;;5054559;28;20386;-71
2022/04/04 13:07:15;;;;;;;6.10;3.70;;;7.40;63.60;;;;;;5056440;28;20076;-71
2022/04/04 13:09:52;;;;;;;4.82;3.75;;;7.50;62.70;;;;;;5052380;28;20024;-70